Time;durP1;ratioP1;P1;durP2;ratioP2;P2;SDS_P1;SDS_P2;PMS_P1;PMS_P2;Temp;Humidity;BMP_temperature;BMP_pressure;BME280_temperature;BME280_humidity;BME280_pressure;Samples;Min_cycle;Max_cycle;Signal;HPM_P1;HPM_P2
2021/03/20 00:00:44;;;;;;;4.77;2.10;;;;;;;;;;6307825;22;19995;-54
2021/03/20 00:03:14;;;;;;;14.40;2.83;;;;;;;;;;6307866;22;19999;-54
2021/03/20 00:05:42;;;;;;;13.27;3.17;;;;;;;;;;6307719;22;20411;-55
2021/03/20 00:08:10;;;;;;;6.67;2.67;;;;;;;;;;6307578;22;20385;-55
2021/03/20 00:10:38;;;;;;;11.13;3.17;;;;;;;;;;6307629;22;19995;-55
2021/03/20 00:13:06;;;;;;;12.50;3.10;;;;;;;;;;6307270;22;20015;-55
2021/03/20 00:15:33;;;;;;;15.43;2.97;;;;;;;;;;6307642;22;19999;-55
2021/03/20 00:18:00;;;;;;;20.03;3.23;;;;;;;;;;6307579;22;20093;-55
2021/03/20 00:20:30;;;;;;;12.80;2.83;;;;;;;;;;6305490;22;20003;-55
2021/03/20 00:22:58;;;;;;;8.70;2.50;;;;;;;;;;6281745;22;20010;-55
2021/03/20 00:25:26;;;;;;;11.07;3.53;;;;;;;;;;6307656;22;20011;-54
2021/03/20 00:27:53;;;;;;;5.10;2.20;;;;;;;;;;6307490;22;20015;-54
2021/03/20 00:30:21;;;;;;;3.87;2.00;;;;;;;;;;6307507;22;20007;-54
2021/03/20 00:32:49;;;;;;;4.23;2.23;;;;;;;;;;6307331;22;20015;-54
2021/03/20 00:35:17;;;;;;;9.47;2.60;;;;;;;;;;6307614;22;20325;-54
2021/03/20 00:37:45;;;;;;;7.53;2.33;;;;;;;;;;6307484;22;19999;-54
2021/03/20 00:40:14;;;;;;;44.23;6.03;;;;;;;;;;6307434;22;20003;-54
2021/03/20 00:42:42;;;;;;;19.80;2.70;;;;;;;;;;6307569;22;19999;-55
2021/03/20 00:45:11;;;;;;;10.70;2.17;;;;;;;;;;6307384;22;20072;-54
2021/03/20 00:47:38;;;;;;;5.57;2.33;;;;;;;;;;6307091;22;20004;-55
2021/03/20 00:50:07;;;;;;;8.87;2.27;;;;;;;;;;6307437;22;20023;-54
2021/03/20 00:52:34;;;;;;;6.53;2.00;;;;;;;;;;6307354;22;20011;-54
2021/03/20 00:55:06;;;;;;;11.10;2.10;;;;;;;;;;6305788;22;20000;-56
2021/03/20 00:57:36;;;;;;;6.17;2.10;;;;;;;;;;6307146;22;20398;-54
2021/03/20 01:00:06;;;;;;;4.27;1.60;;;;;;;;;;6307043;22;20003;-54
2021/03/20 01:02:35;;;;;;;7.53;1.90;;;;;;;;;;6307171;22;20028;-54
2021/03/20 01:05:04;;;;;;;7.00;2.43;;;;;;;;;;6307335;22;20011;-54
2021/03/20 01:07:32;;;;;;;4.80;2.17;;;;;;;;;;6307062;22;20326;-54
2021/03/20 01:10:08;;;;;;;7.30;2.60;;;;;;;;;;6307257;22;20026;-55
2021/03/20 01:12:36;;;;;;;5.70;1.97;;;;;;;;;;6306674;22;20015;-55
2021/03/20 01:15:06;;;;;;;7.10;2.37;;;;;;;;;;6306979;22;20003;-55
2021/03/20 01:17:34;;;;;;;22.23;2.60;;;;;;;;;;6307033;22;20367;-55
2021/03/20 01:20:01;;;;;;;4.53;1.63;;;;;;;;;;6307078;22;20006;-55
2021/03/20 01:22:28;;;;;;;5.43;1.83;;;;;;;;;;6307154;22;20000;-56
2021/03/20 01:25:14;;;;;;;5.70;1.70;;;;;;;;;;6307895;22;20088;-55
2021/03/20 01:27:41;;;;;;;6.80;2.50;;;;;;;;;;6306578;22;20007;-55
2021/03/20 01:30:10;;;;;;;3.93;1.83;;;;;;;;;;6306669;22;20015;-55
2021/03/20 01:32:37;;;;;;;11.07;2.10;;;;;;;;;;6306937;22;20038;-55
2021/03/20 01:35:05;;;;;;;8.40;2.57;;;;;;;;;;6305646;22;20003;-55
2021/03/20 01:37:32;;;;;;;10.27;2.53;;;;;;;;;;6307157;22;20029;-55
2021/03/20 01:40:01;;;;;;;14.47;2.33;;;;;;;;;;6306740;22;20000;-54
2021/03/20 01:42:29;;;;;;;11.80;2.93;;;;;;;;;;6306908;22;20362;-55
2021/03/20 01:45:11;;;;;;;16.27;2.60;;;;;;;;;;6306766;22;20003;-54
2021/03/20 01:47:44;;;;;;;35.97;4.07;;;;;;;;;;6306913;22;20010;-54
2021/03/20 01:50:17;;;;;;;14.33;2.97;;;;;;;;;;6306870;22;20002;-54
2021/03/20 01:52:44;;;;;;;13.40;3.20;;;;;;;;;;6306933;22;20004;-54
2021/03/20 01:55:17;;;;;;;9.30;2.83;;;;;;;;;;6306906;22;20377;-54
2021/03/20 01:57:47;;;;;;;9.87;1.90;;;;;;;;;;6307046;22;20003;-55
2021/03/20 02:00:36;;;;;;;9.60;3.00;;;;;;;;;;6307052;22;20003;-54
2021/03/20 02:03:06;;;;;;;15.23;2.83;;;;;;;;;;6299536;22;20330;-54
2021/03/20 02:05:33;;;;;;;11.57;3.50;;;;;;;;;;6306814;22;20304;-55
2021/03/20 02:08:01;;;;;;;6.27;2.00;;;;;;;;;;6306833;22;20011;-54
2021/03/20 02:10:29;;;;;;;18.83;2.87;;;;;;;;;;6306800;22;20003;-54
2021/03/20 02:12:58;;;;;;;8.77;3.37;;;;;;;;;;6306842;22;20065;-54
2021/03/20 02:15:28;;;;;;;12.00;3.10;;;;;;;;;;6308321;22;20042;-55
2021/03/20 02:17:58;;;;;;;12.87;3.03;;;;;;;;;;6309366;22;20074;-54
2021/03/20 02:20:30;;;;;;;8.37;2.70;;;;;;;;;;6308598;22;20026;-54
2021/03/20 02:23:16;;;;;;;7.83;2.13;;;;;;;;;;6308872;22;19995;-54
2021/03/20 02:26:01;;;;;;;5.77;2.33;;;;;;;;;;6277889;22;20011;-54
2021/03/20 02:28:50;;;;;;;10.02;2.25;;;;;;;;;;6277681;22;20075;-54
2021/03/20 02:31:35;;;;;;;12.37;2.37;;;;;;;;;;6277781;22;20065;-54
2021/03/20 02:34:17;;;;;;;6.83;2.43;;;;;;;;;;6277828;22;20000;-54
2021/03/20 02:36:44;;;;;;;8.97;2.33;;;;;;;;;;6277582;22;20000;-54
2021/03/20 02:39:17;;;;;;;6.00;2.33;;;;;;;;;;6277556;22;20039;-54
2021/03/20 02:41:52;;;;;;;12.80;3.50;;;;;;;;;;6277665;22;20019;-54
2021/03/20 02:44:24;;;;;;;8.17;2.53;;;;;;;;;;6277645;22;20002;-54
2021/03/20 02:47:07;;;;;;;12.17;2.73;;;;;;;;;;6277590;22;20453;-54
2021/03/20 02:49:39;;;;;;;9.23;2.90;;;;;;;;;;6277406;22;20057;-54
2021/03/20 02:52:15;;;;;;;19.13;2.90;;;;;;;;;;6277272;22;20011;-54
2021/03/20 02:54:46;;;;;;;8.43;2.53;;;;;;;;;;6277628;22;19996;-54
2021/03/20 02:57:16;;;;;;;8.80;2.73;;;;;;;;;;6277510;22;20327;-54
2021/03/20 02:59:46;;;;;;;9.40;3.83;;;;;;;;;;6277387;22;20007;-54
2021/03/20 03:02:16;;;;;;;10.47;2.43;;;;;;;;;;6277559;22;20000;-54
2021/03/20 03:04:52;;;;;;;5.10;2.10;;;;;;;;;;6277474;22;20006;-54
2021/03/20 03:07:26;;;;;;;9.07;2.93;;;;;;;;;;6277439;22;20423;-54
2021/03/20 03:09:56;;;;;;;14.13;5.35;;;;;;;;;;6277230;22;19999;-54
2021/03/20 03:12:26;;;;;;;12.73;5.30;;;;;;;;;;6277212;22;20094;-54
2021/03/20 03:14:57;;;;;;;19.70;9.10;;;;;;;;;;6277468;22;19995;-54
2021/03/20 03:17:26;;;;;;;18.50;7.93;;;;;;;;;;6277244;22;20004;-54
2021/03/20 03:19:56;;;;;;;13.03;5.00;;;;;;;;;;6277196;22;20373;-54
2021/03/20 03:22:29;;;;;;;13.07;4.20;;;;;;;;;;6277085;22;20010;-54
2021/03/20 03:24:59;;;;;;;13.23;3.53;;;;;;;;;;6300434;22;20019;-54
2021/03/20 03:27:28;;;;;;;6.23;2.77;;;;;;;;;;6308097;22;20004;-54
2021/03/20 03:29:56;;;;;;;8.00;3.07;;;;;;;;;;6307795;22;20011;-54
2021/03/20 03:32:34;;;;;;;8.33;2.43;;;;;;;;;;6308080;22;20418;-54
2021/03/20 03:35:08;;;;;;;10.37;3.60;;;;;;;;;;6308059;22;20027;-54
2021/03/20 03:37:35;;;;;;;10.70;3.10;;;;;;;;;;6308215;22;20015;-54
2021/03/20 03:40:10;;;;;;;9.50;2.97;;;;;;;;;;6308323;22;20006;-54
2021/03/20 03:42:37;;;;;;;4.83;2.33;;;;;;;;;;6307971;22;20010;-54
2021/03/20 03:45:06;;;;;;;7.87;2.40;;;;;;;;;;6307988;22;20074;-54
2021/03/20 03:47:33;;;;;;;9.83;2.67;;;;;;;;;;6308043;22;20004;-54
2021/03/20 03:50:01;;;;;;;11.17;2.70;;;;;;;;;;6307774;22;20338;-54
2021/03/20 03:52:28;;;;;;;8.07;2.43;;;;;;;;;;6307938;22;20026;-54
2021/03/20 03:54:55;;;;;;;9.73;2.77;;;;;;;;;;6307815;22;20007;-54
2021/03/20 03:57:22;;;;;;;9.90;2.30;;;;;;;;;;6307989;22;20052;-54
2021/03/20 03:59:48;;;;;;;8.87;2.77;;;;;;;;;;6307747;22;20022;-54
2021/03/20 04:02:34;;;;;;;12.60;2.83;;;;;;;;;;6307793;22;20007;-54
2021/03/20 04:05:00;;;;;;;8.85;2.53;;;;;;;;;;6307792;22;20430;-53
2021/03/20 04:07:35;;;;;;;6.30;2.03;;;;;;;;;;6307732;22;19999;-54
2021/03/20 04:10:08;;;;;;;6.20;2.58;;;;;;;;;;6307834;22;20026;-54
2021/03/20 04:12:35;;;;;;;7.73;2.60;;;;;;;;;;6307650;22;20015;-54
2021/03/20 04:15:01;;;;;;;6.97;3.10;;;;;;;;;;6307633;22;20003;-54
2021/03/20 04:17:47;;;;;;;10.53;2.80;;;;;;;;;;6307583;22;20078;-55
2021/03/20 04:20:23;;;;;;;18.47;3.57;;;;;;;;;;6307429;22;19999;-55
2021/03/20 04:22:53;;;;;;;5.87;2.63;;;;;;;;;;6307714;22;19995;-54
2021/03/20 04:25:29;;;;;;;7.60;3.00;;;;;;;;;;6308614;22;20053;-55
2021/03/20 04:28:07;;;;;;;7.63;3.17;;;;;;;;;;6307510;22;20026;-55
2021/03/20 04:30:35;;;;;;;10.77;3.00;;;;;;;;;;6307608;22;20005;-55
2021/03/20 04:33:02;;;;;;;7.73;2.90;;;;;;;;;;6307559;22;20017;-54
2021/03/20 04:35:30;;;;;;;10.57;2.77;;;;;;;;;;6307338;22;19995;-54
2021/03/20 04:37:59;;;;;;;8.07;2.70;;;;;;;;;;6306838;22;20011;-54
2021/03/20 04:40:37;;;;;;;8.33;2.77;;;;;;;;;;6307353;22;20010;-54
2021/03/20 04:43:05;;;;;;;10.07;2.67;;;;;;;;;;6307463;22;20006;-54
2021/03/20 04:45:33;;;;;;;11.33;3.30;;;;;;;;;;6307406;22;20003;-55
2021/03/20 04:48:02;;;;;;;15.43;3.03;;;;;;;;;;6307382;22;20007;-54
2021/03/20 04:50:30;;;;;;;6.47;2.50;;;;;;;;;;6307427;22;20046;-54
2021/03/20 04:52:59;;;;;;;8.27;3.13;;;;;;;;;;6307162;22;20011;-54
2021/03/20 04:55:28;;;;;;;6.60;2.50;;;;;;;;;;6307411;22;19999;-54
2021/03/20 04:58:02;;;;;;;9.17;3.23;;;;;;;;;;6307415;22;20376;-54
2021/03/20 05:00:34;;;;;;;6.47;2.15;;;;;;;;;;6307224;22;20438;-54
2021/03/20 05:03:04;;;;;;;15.10;2.70;;;;;;;;;;6307267;22;20030;-54
2021/03/20 05:05:40;;;;;;;11.60;2.93;;;;;;;;;;6307354;22;20010;-55
2021/03/20 05:08:27;;;;;;;17.60;2.60;;;;;;;;;;6307187;22;19999;-54
2021/03/20 05:10:56;;;;;;;15.10;3.60;;;;;;;;;;6306117;22;20082;-54
2021/03/20 05:13:31;;;;;;;5.87;2.70;;;;;;;;;;6307010;22;20224;-54
2021/03/20 05:16:01;;;;;;;6.23;2.33;;;;;;;;;;6307183;22;20219;-54
2021/03/20 05:18:28;;;;;;;6.60;3.50;;;;;;;;;;6307163;22;20011;-54
2021/03/20 05:20:54;;;;;;;8.40;2.53;;;;;;;;;;6307012;22;20925;-54
2021/03/20 05:23:21;;;;;;;9.97;2.63;;;;;;;;;;6306933;22;20663;-54
2021/03/20 05:25:48;;;;;;;6.77;2.80;;;;;;;;;;6308083;22;20244;-54
2021/03/20 05:28:15;;;;;;;4.97;2.40;;;;;;;;;;6306872;22;20527;-54
2021/03/20 05:30:42;;;;;;;12.17;3.07;;;;;;;;;;6306902;22;20216;-54
2021/03/20 05:33:11;;;;;;;7.77;2.80;;;;;;;;;;6307233;22;20213;-53
2021/03/20 05:35:38;;;;;;;12.93;3.00;;;;;;;;;;6307010;22;20543;-54
2021/03/20 05:38:05;;;;;;;6.33;2.67;;;;;;;;;;6307056;22;20551;-54
2021/03/20 05:40:33;;;;;;;6.53;2.37;;;;;;;;;;6307076;22;20732;-54
2021/03/20 05:43:07;;;;;;;9.90;3.10;;;;;;;;;;6307134;22;20279;-54
2021/03/20 05:45:37;;;;;;;8.20;2.53;;;;;;;;;;6306834;22;20242;-54
2021/03/20 05:48:13;;;;;;;6.90;3.00;;;;;;;;;;6307471;22;20219;-54
2021/03/20 05:50:59;;;;;;;11.63;2.83;;;;;;;;;;6309235;22;20280;-54
2021/03/20 05:53:41;;;;;;;8.23;2.40;;;;;;;;;;6309184;22;20291;-54
2021/03/20 05:56:24;;;;;;;8.43;3.73;;;;;;;;;;6309207;22;20074;-53
2021/03/20 05:58:59;;;;;;;10.40;2.90;;;;;;;;;;6309104;22;20211;-54
2021/03/20 06:01:45;;;;;;;8.68;3.00;;;;;;;;;;6308864;22;20216;-54
2021/03/20 06:04:12;;;;;;;6.83;2.40;;;;;;;;;;6308743;22;20331;-54
2021/03/20 06:06:57;;;;;;;9.00;2.80;;;;;;;;;;6308640;22;20216;-54
2021/03/20 06:09:45;;;;;;;9.13;2.80;;;;;;;;;;6309032;22;20287;-54
2021/03/20 06:12:30;;;;;;;8.80;2.70;;;;;;;;;;6308917;22;20011;-53
2021/03/20 06:15:15;;;;;;;11.50;3.28;;;;;;;;;;6308723;22;20257;-54
2021/03/20 06:18:14;;;;;;;12.02;3.03;;;;;;;;;;6309057;22;20325;-54
2021/03/20 06:20:44;;;;;;;6.30;2.50;;;;;;;;;;6225453;22;20011;-53
2021/03/20 06:23:12;;;;;;;5.97;2.73;;;;;;;;;;6308891;22;20707;-54
2021/03/20 06:25:44;;;;;;;6.30;2.83;;;;;;;;;;6309661;22;20311;-53
2021/03/20 06:28:13;;;;;;;5.67;2.80;;;;;;;;;;6308984;22;20254;-53
2021/03/20 06:30:43;;;;;;;6.77;2.17;;;;;;;;;;6308375;22;20291;-53
2021/03/20 06:33:18;;;;;;;9.30;2.90;;;;;;;;;;6308809;22;20562;-54
2021/03/20 06:35:47;;;;;;;6.07;2.80;;;;;;;;;;6281265;22;20259;-54
2021/03/20 06:38:21;;;;;;;9.47;3.63;;;;;;;;;;6308318;22;20373;-52
2021/03/20 06:40:52;;;;;;;4.87;2.40;;;;;;;;;;6308378;22;20236;-52
2021/03/20 06:43:20;;;;;;;7.23;2.60;;;;;;;;;;6308300;22;20698;-51
2021/03/20 06:45:48;;;;;;;9.33;3.10;;;;;;;;;;6308871;22;20220;-52
2021/03/20 06:48:18;;;;;;;10.67;3.63;;;;;;;;;;6308507;22;20287;-51
2021/03/20 06:50:49;;;;;;;12.63;3.30;;;;;;;;;;6308188;22;20214;-52
2021/03/20 06:53:17;;;;;;;9.10;2.93;;;;;;;;;;6308212;22;20222;-52
2021/03/20 06:55:50;;;;;;;9.97;2.90;;;;;;;;;;6308517;22;20495;-51
2021/03/20 06:58:43;;;;;;;9.33;3.50;;;;;;;;;;6308373;22;20539;-51
2021/03/20 07:01:25;;;;;;;9.80;2.77;;;;;;;;;;6301967;22;20220;-52
2021/03/20 07:04:07;;;;;;;9.90;2.47;;;;;;;;;;6308398;22;20208;-51
2021/03/20 07:06:39;;;;;;;8.37;3.20;;;;;;;;;;6308396;22;20662;-51
2021/03/20 07:09:07;;;;;;;13.10;3.47;;;;;;;;;;6308365;22;20243;-52
2021/03/20 07:11:57;;;;;;;12.77;3.63;;;;;;;;;;6308322;22;20307;-52
2021/03/20 07:14:40;;;;;;;8.00;2.53;;;;;;;;;;6288964;22;20220;-52
2021/03/20 07:17:10;;;;;;;6.07;2.83;;;;;;;;;;6308259;22;20543;-52
2021/03/20 07:19:51;;;;;;;10.30;3.00;;;;;;;;;;6308275;22;20219;-52
2021/03/20 07:22:25;;;;;;;8.10;2.80;;;;;;;;;;6308236;22;20220;-52
2021/03/20 07:24:55;;;;;;;13.70;2.75;;;;;;;;;;6309130;22;20623;-51
2021/03/20 07:27:28;;;;;;;8.83;2.47;;;;;;;;;;6307821;22;20376;-51
2021/03/20 07:29:57;;;;;;;7.30;2.67;;;;;;;;;;6308147;22;20213;-52
2021/03/20 07:32:24;;;;;;;8.23;2.53;;;;;;;;;;6307930;22;20248;-52
2021/03/20 07:34:51;;;;;;;11.97;3.20;;;;;;;;;;6308239;22;20232;-52
2021/03/20 07:37:21;;;;;;;10.90;2.97;;;;;;;;;;6308086;22;20551;-52
2021/03/20 07:39:53;;;;;;;9.03;3.40;;;;;;;;;;6308030;22;20220;-52
2021/03/20 07:42:36;;;;;;;9.27;3.93;;;;;;;;;;6307889;22;20535;-52
2021/03/20 07:45:04;;;;;;;7.80;3.00;;;;;;;;;;6307801;22;20240;-52
2021/03/20 07:47:33;;;;;;;10.90;3.27;;;;;;;;;;6307855;22;20210;-51
2021/03/20 07:50:26;;;;;;;10.83;2.93;;;;;;;;;;6307940;22;20220;-51
2021/03/20 07:53:02;;;;;;;6.00;2.80;;;;;;;;;;6301519;22;20346;-50
2021/03/20 07:55:50;;;;;;;11.97;4.37;;;;;;;;;;6307711;22;20216;-52
2021/03/20 07:58:22;;;;;;;10.00;5.00;;;;;;;;;;6306923;22;20287;-51
2021/03/20 08:00:54;;;;;;;11.87;5.50;;;;;;;;;;6307880;22;20219;-51
2021/03/20 08:03:23;;;;;;;10.83;4.70;;;;;;;;;;6307716;22;20651;-50
2021/03/20 08:05:50;;;;;;;11.60;4.60;;;;;;;;;;6307840;22;20227;-50
2021/03/20 08:08:20;;;;;;;9.33;4.33;;;;;;;;;;6307584;22;20241;-51
2021/03/20 08:10:58;;;;;;;9.93;4.40;;;;;;;;;;6307580;22;20221;-51
2021/03/20 08:13:31;;;;;;;9.37;4.10;;;;;;;;;;6307084;22;20224;-51
2021/03/20 08:15:58;;;;;;;9.70;3.97;;;;;;;;;;6307515;22;20212;-51
2021/03/20 08:18:27;;;;;;;12.20;3.40;;;;;;;;;;6307529;22;20231;-50
2021/03/20 08:21:00;;;;;;;9.63;3.10;;;;;;;;;;6307970;22;20497;-51
2021/03/20 08:23:39;;;;;;;11.47;3.73;;;;;;;;;;6307440;22;20227;-51
2021/03/20 08:26:20;;;;;;;10.77;4.10;;;;;;;;;;6308674;22;20276;-51
2021/03/20 08:28:49;;;;;;;8.73;3.90;;;;;;;;;;6307384;22;20232;-51
2021/03/20 08:31:23;;;;;;;12.47;4.37;;;;;;;;;;6307533;22;20243;-51
2021/03/20 08:34:02;;;;;;;6.97;2.88;;;;;;;;;;6307456;22;20216;-51
2021/03/20 08:36:47;;;;;;;7.77;3.10;;;;;;;;;;6307571;22;20000;-51
2021/03/20 08:39:25;;;;;;;7.35;3.22;;;;;;;;;;6307429;22;20224;-51
2021/03/20 08:42:17;;;;;;;7.27;2.93;;;;;;;;;;6307292;22;20030;-51
2021/03/20 08:44:59;;;;;;;7.37;2.83;;;;;;;;;;6306533;22;20570;-50
2021/03/20 08:47:32;;;;;;;8.77;2.93;;;;;;;;;;6306168;22;20259;-50
2021/03/20 08:50:02;;;;;;;9.40;3.30;;;;;;;;;;6306996;22;20307;-51
2021/03/20 08:52:51;;;;;;;9.07;2.93;;;;;;;;;;6307413;22;20251;-51
2021/03/20 08:55:31;;;;;;;5.60;2.33;;;;;;;;;;6307275;22;20308;-50
2021/03/20 08:58:07;;;;;;;7.27;2.93;;;;;;;;;;6307596;22;20258;-50
2021/03/20 09:00:51;;;;;;;6.07;3.23;;;;;;;;;;6307312;22;20227;-50
2021/03/20 09:03:21;;;;;;;9.17;3.13;;;;;;;;;;6307374;22;20741;-51
2021/03/20 09:05:49;;;;;;;8.00;2.67;;;;;;;;;;6307003;22;20527;-50
2021/03/20 09:08:23;;;;;;;8.13;4.20;;;;;;;;;;6307038;22;20282;-50
2021/03/20 09:11:22;;;;;;;9.77;2.90;;;;;;;;;;6307031;22;20213;-50
2021/03/20 09:14:00;;;;;;;7.87;3.00;;;;;;;;;;6277895;22;20771;-51
2021/03/20 09:16:45;;;;;;;7.27;2.40;;;;;;;;;;6307098;22;20204;-50
2021/03/20 09:19:39;;;;;;;8.77;3.70;;;;;;;;;;6307246;22;20208;-51
2021/03/20 09:22:10;;;;;;;6.53;2.67;;;;;;;;;;6301614;22;20586;-51
2021/03/20 09:25:04;;;;;;;7.07;3.33;;;;;;;;;;6307815;22;20252;-50
2021/03/20 09:27:49;;;;;;;7.13;3.53;;;;;;;;;;6307027;22;20214;-50
2021/03/20 09:30:28;;;;;;;8.60;2.80;;;;;;;;;;6307034;22;20212;-51
2021/03/20 09:32:58;;;;;;;5.77;2.97;;;;;;;;;;6307203;22;20045;-51
2021/03/20 09:35:27;;;;;;;9.07;3.87;;;;;;;;;;6307071;22;20212;-51
2021/03/20 09:37:57;;;;;;;9.40;3.43;;;;;;;;;;6307244;22;20223;-51
2021/03/20 09:40:42;;;;;;;5.20;2.80;;;;;;;;;;6307043;22;20226;-51
2021/03/20 09:43:31;;;;;;;9.55;2.83;;;;;;;;;;6307035;22;20224;-51
2021/03/20 09:46:17;;;;;;;5.93;2.50;;;;;;;;;;6306854;22;20007;-51
2021/03/20 09:48:47;;;;;;;8.32;2.83;;;;;;;;;;6306886;22;20648;-50
2021/03/20 09:51:33;;;;;;;5.93;2.70;;;;;;;;;;6306831;22;20012;-51
2021/03/20 09:54:20;;;;;;;11.68;4.10;;;;;;;;;;6307006;22;20236;-50
2021/03/20 09:56:47;;;;;;;8.27;3.13;;;;;;;;;;6306867;22;20003;-51
2021/03/20 09:59:34;;;;;;;6.80;3.07;;;;;;;;;;6307110;22;20586;-51
2021/03/20 10:02:01;;;;;;;6.93;2.73;;;;;;;;;;6306780;22;20221;-50
2021/03/20 10:04:37;;;;;;;6.93;2.90;;;;;;;;;;6306875;22;20303;-51
2021/03/20 10:07:27;;;;;;;6.10;2.83;;;;;;;;;;6307063;22;20216;-50
2021/03/20 10:10:01;;;;;;;8.70;3.10;;;;;;;;;;6288208;22;20562;-50
2021/03/20 10:12:30;;;;;;;7.90;2.40;;;;;;;;;;6306517;22;20252;-50
2021/03/20 10:15:20;;;;;;;7.80;2.73;;;;;;;;;;6304647;22;20565;-51
2021/03/20 10:18:06;;;;;;;8.57;3.03;;;;;;;;;;6282760;22;20641;-50
2021/03/20 10:20:52;;;;;;;8.33;3.23;;;;;;;;;;6306239;22;20651;-50
2021/03/20 10:23:18;;;;;;;5.63;2.42;;;;;;;;;;6306971;22;20291;-51
2021/03/20 10:25:47;;;;;;;7.53;3.30;;;;;;;;;;6307965;22;20373;-50
2021/03/20 10:28:15;;;;;;;7.20;2.90;;;;;;;;;;6307556;22;20236;-50
2021/03/20 10:30:54;;;;;;;5.63;2.80;;;;;;;;;;6307074;22;20610;-50
2021/03/20 10:33:21;;;;;;;4.27;2.20;;;;;;;;;;6306905;22;20255;-51
2021/03/20 10:35:48;;;;;;;7.93;2.83;;;;;;;;;;6307878;22;20287;-50
2021/03/20 10:38:23;;;;;;;5.87;2.83;;;;;;;;;;6308719;22;20282;-50
2021/03/20 10:41:08;;;;;;;7.18;3.35;;;;;;;;;;6308498;22;20254;-50
2021/03/20 10:43:53;;;;;;;7.80;2.72;;;;;;;;;;6308529;22;20075;-51
2021/03/20 10:46:25;;;;;;;10.10;2.70;;;;;;;;;;6308791;22;20003;-50
2021/03/20 10:48:53;;;;;;;7.43;2.60;;;;;;;;;;6308432;22;20003;-50
2021/03/20 10:51:21;;;;;;;5.23;2.57;;;;;;;;;;6308174;22;20240;-50
2021/03/20 10:53:49;;;;;;;6.20;2.80;;;;;;;;;;6308586;22;20216;-51
2021/03/20 10:56:37;;;;;;;10.70;3.23;;;;;;;;;;6308653;22;20204;-51
2021/03/20 10:59:22;;;;;;;7.37;3.40;;;;;;;;;;6308429;22;20212;-50
2021/03/20 11:01:50;;;;;;;9.13;2.72;;;;;;;;;;6281077;22;20232;-50
2021/03/20 11:04:28;;;;;;;7.73;2.80;;;;;;;;;;6308348;22;20069;-50
2021/03/20 11:06:56;;;;;;;5.83;3.03;;;;;;;;;;6308508;22;20220;-50
2021/03/20 11:09:24;;;;;;;6.80;3.40;;;;;;;;;;6308212;22;20220;-50
2021/03/20 11:11:56;;;;;;;6.40;3.10;;;;;;;;;;6308359;22;20244;-50
2021/03/20 11:14:23;;;;;;;11.37;2.93;;;;;;;;;;6308251;22;20231;-50
2021/03/20 11:16:50;;;;;;;12.40;4.07;;;;;;;;;;6308358;22;20254;-50
2021/03/20 11:19:25;;;;;;;7.07;2.90;;;;;;;;;;6308048;22;20220;-50
2021/03/20 11:21:58;;;;;;;4.20;2.47;;;;;;;;;;6308757;22;20228;-50
2021/03/20 11:24:28;;;;;;;5.97;2.33;;;;;;;;;;6309267;22;20184;-52
2021/03/20 11:26:56;;;;;;;12.40;3.00;;;;;;;;;;6280884;22;20247;-50
2021/03/20 11:29:27;;;;;;;4.47;2.60;;;;;;;;;;6308078;22;20225;-50
2021/03/20 11:31:54;;;;;;;5.80;2.67;;;;;;;;;;6307900;22;20252;-51
2021/03/20 11:34:27;;;;;;;4.73;2.63;;;;;;;;;;6308344;22;20527;-50
2021/03/20 11:36:55;;;;;;;4.60;2.37;;;;;;;;;;6307996;22;20273;-50
2021/03/20 11:39:22;;;;;;;5.73;2.67;;;;;;;;;;6308105;22;20236;-50
2021/03/20 11:41:55;;;;;;;8.47;3.10;;;;;;;;;;6307910;22;20590;-51
2021/03/20 11:44:23;;;;;;;5.47;2.40;;;;;;;;;;6308164;22;20233;-51
2021/03/20 11:46:57;;;;;;;5.43;2.33;;;;;;;;;;6307869;22;20224;-50
2021/03/20 11:49:26;;;;;;;6.85;2.97;;;;;;;;;;6307702;22;20212;-50
2021/03/20 11:51:54;;;;;;;10.70;3.57;;;;;;;;;;6307992;22;20007;-51
2021/03/20 11:54:28;;;;;;;9.90;2.70;;;;;;;;;;6308014;22;20212;-51
2021/03/20 11:56:58;;;;;;;6.17;2.50;;;;;;;;;;6308179;22;20224;-50
2021/03/20 11:59:40;;;;;;;4.00;2.57;;;;;;;;;;6307915;22;20272;-50
2021/03/20 12:02:11;;;;;;;12.47;2.60;;;;;;;;;;6307397;22;20228;-51
2021/03/20 12:04:39;;;;;;;3.87;2.17;;;;;;;;;;6307849;22;20217;-50
2021/03/20 12:07:33;;;;;;;5.30;2.60;;;;;;;;;;6307993;22;20512;-50
2021/03/20 12:10:13;;;;;;;4.37;2.37;;;;;;;;;;6301290;22;20281;-50
2021/03/20 12:12:46;;;;;;;4.13;2.63;;;;;;;;;;6307471;22;20248;-51
2021/03/20 12:15:23;;;;;;;5.20;2.60;;;;;;;;;;6307868;22;20212;-50
2021/03/20 12:17:54;;;;;;;4.83;2.57;;;;;;;;;;6307768;22;20280;-50
2021/03/20 12:20:23;;;;;;;5.77;2.53;;;;;;;;;;6307192;22;20225;-50
2021/03/20 12:22:52;;;;;;;6.13;2.30;;;;;;;;;;6307508;22;20240;-50
2021/03/20 12:25:20;;;;;;;6.87;2.93;;;;;;;;;;6308209;22;20274;-50
2021/03/20 12:27:49;;;;;;;5.37;2.30;;;;;;;;;;6307726;22;20212;-51
2021/03/20 12:30:27;;;;;;;5.17;2.10;;;;;;;;;;6307911;22;20244;-50
2021/03/20 12:32:56;;;;;;;4.07;2.30;;;;;;;;;;6307556;22;20244;-50
2021/03/20 12:35:29;;;;;;;4.40;2.60;;;;;;;;;;6307430;22;20269;-51
2021/03/20 12:38:04;;;;;;;4.67;2.33;;;;;;;;;;6306921;22;20299;-51
2021/03/20 12:40:33;;;;;;;5.85;2.47;;;;;;;;;;6307478;22;20508;-51
2021/03/20 12:43:01;;;;;;;5.60;2.67;;;;;;;;;;6307504;22;20348;-51
2021/03/20 12:45:29;;;;;;;5.07;2.60;;;;;;;;;;6307312;22;20213;-51
2021/03/20 12:47:55;;;;;;;5.87;2.20;;;;;;;;;;6307168;22;20220;-50
2021/03/20 12:50:22;;;;;;;4.63;2.30;;;;;;;;;;6307427;22;20220;-51
2021/03/20 12:52:49;;;;;;;12.80;2.90;;;;;;;;;;6307091;22;20244;-51
2021/03/20 13:06:27;;;;;;;9.93;3.30;;;;;;;;;;5979246;21;8522599;-53
2021/03/20 13:08:54;;;;;;;8.27;2.70;;;;;;;;;;6347772;22;20511;-53
2021/03/20 13:11:26;;;;;;;6.57;2.70;;;;;;;;;;6347440;22;20342;-53
2021/03/20 13:13:52;;;;;;;6.53;2.70;;;;;;;;;;6347287;22;20292;-53
2021/03/20 13:16:19;;;;;;;10.90;3.40;;;;;;;;;;6347405;22;20222;-53
2021/03/20 13:18:46;;;;;;;6.23;2.70;;;;;;;;;;6347428;22;20211;-53
2021/03/20 13:21:14;;;;;;;12.63;3.67;;;;;;;;;;6347287;22;20223;-54
2021/03/20 13:23:41;;;;;;;11.13;4.03;;;;;;;;;;6347420;22;20211;-53
2021/03/20 13:26:08;;;;;;;8.40;3.27;;;;;;;;;;6347351;22;20215;-54
2021/03/20 13:28:35;;;;;;;12.13;3.60;;;;;;;;;;6347219;22;20208;-53
2021/03/20 13:31:02;;;;;;;8.13;3.70;;;;;;;;;;6347184;22;20222;-54
2021/03/20 13:33:29;;;;;;;8.93;3.50;;;;;;;;;;6347220;22;20211;-54
2021/03/20 13:35:56;;;;;;;7.43;4.23;;;;;;;;;;6347043;22;20227;-54
2021/03/20 13:38:23;;;;;;;7.67;4.00;;;;;;;;;;6347058;22;20212;-54
2021/03/20 13:40:51;;;;;;;8.07;4.13;;;;;;;;;;6347447;22;20255;-54
2021/03/20 13:43:18;;;;;;;7.90;3.47;;;;;;;;;;6347123;22;20207;-54
2021/03/20 13:45:45;;;;;;;5.13;3.03;;;;;;;;;;6347011;22;20212;-54
2021/03/20 13:48:13;;;;;;;8.07;3.47;;;;;;;;;;6347034;22;20530;-54
2021/03/20 13:50:41;;;;;;;6.50;3.30;;;;;;;;;;6347510;22;20208;-54
2021/03/20 13:53:16;;;;;;;7.57;2.60;;;;;;;;;;6347083;22;20242;-54
2021/03/20 13:55:44;;;;;;;5.72;3.38;;;;;;;;;;6347043;22;20227;-54
2021/03/20 13:58:12;;;;;;;8.70;2.67;;;;;;;;;;6346973;22;20337;-54
2021/03/20 14:00:40;;;;;;;5.20;2.50;;;;;;;;;;6346878;22;20219;-54
2021/03/20 14:03:07;;;;;;;9.20;2.90;;;;;;;;;;6346818;22;20220;-54
2021/03/20 14:05:34;;;;;;;6.50;2.40;;;;;;;;;;6345556;22;20260;-54
2021/03/20 14:08:01;;;;;;;7.47;3.20;;;;;;;;;;6339675;22;20226;-54
2021/03/20 14:10:32;;;;;;;4.73;2.10;;;;;;;;;;6339901;22;20208;-54
2021/03/20 14:12:59;;;;;;;3.40;1.80;;;;;;;;;;6339665;22;20216;-54
2021/03/20 14:15:26;;;;;;;6.53;2.50;;;;;;;;;;6339538;22;20304;-54
2021/03/20 14:17:54;;;;;;;3.53;1.73;;;;;;;;;;6339781;22;20212;-54
2021/03/20 14:20:23;;;;;;;4.97;1.90;;;;;;;;;;6339776;22;20249;-54
2021/03/20 14:22:50;;;;;;;4.87;2.17;;;;;;;;;;6312461;22;20007;-55
2021/03/20 14:25:17;;;;;;;4.33;2.17;;;;;;;;;;6339500;22;20009;-54
2021/03/20 14:27:43;;;;;;;5.50;2.30;;;;;;;;;;6339640;22;20401;-54
2021/03/20 14:30:11;;;;;;;5.40;2.43;;;;;;;;;;6339554;22;20052;-54
2021/03/20 14:32:38;;;;;;;4.93;2.33;;;;;;;;;;6339548;22;20003;-55
2021/03/20 14:35:05;;;;;;;4.40;2.30;;;;;;;;;;6339457;22;20038;-54
2021/03/20 14:37:32;;;;;;;5.23;2.27;;;;;;;;;;6339464;22;20052;-54
2021/03/20 14:40:02;;;;;;;4.80;2.10;;;;;;;;;;6339493;22;20121;-55
2021/03/20 14:42:29;;;;;;;3.13;1.73;;;;;;;;;;6339539;22;20003;-54
2021/03/20 14:44:56;;;;;;;4.77;2.00;;;;;;;;;;6339538;22;20023;-55
2021/03/20 14:47:24;;;;;;;6.23;2.13;;;;;;;;;;6339339;22;20009;-55
2021/03/20 14:49:51;;;;;;;8.73;2.40;;;;;;;;;;6339470;22;20067;-55
2021/03/20 14:52:17;;;;;;;3.37;1.80;;;;;;;;;;6339403;22;19999;-55
2021/03/20 14:54:44;;;;;;;4.17;1.70;;;;;;;;;;6339251;22;20011;-55
2021/03/20 14:57:11;;;;;;;3.83;1.90;;;;;;;;;;6339460;22;19999;-54
2021/03/20 14:59:38;;;;;;;6.63;2.23;;;;;;;;;;6339621;22;20007;-54
2021/03/20 15:02:05;;;;;;;5.93;2.00;;;;;;;;;;6339615;22;20077;-55
2021/03/20 15:04:32;;;;;;;4.17;1.90;;;;;;;;;;6340759;22;20014;-55
2021/03/20 15:06:59;;;;;;;5.57;2.00;;;;;;;;;;6339599;22;20012;-55
2021/03/20 15:09:26;;;;;;;5.10;1.80;;;;;;;;;;6339416;22;20006;-54
2021/03/20 15:11:53;;;;;;;2.60;1.70;;;;;;;;;;6339227;22;20003;-55
2021/03/20 15:14:19;;;;;;;3.30;1.73;;;;;;;;;;6339488;22;20062;-55
2021/03/20 15:16:46;;;;;;;3.73;1.90;;;;;;;;;;6338975;22;19999;-55
2021/03/20 15:19:13;;;;;;;3.90;2.00;;;;;;;;;;6338801;22;20033;-55
2021/03/20 15:21:41;;;;;;;7.43;1.80;;;;;;;;;;6339121;22;20013;-55